Time;durP1;ratioP1;P1;durP2;ratioP2;P2;SDS_P1;SDS_P2;PMS_P1;PMS_P2;Temp;Humidity;BMP_temperature;BMP_pressure;BME280_temperature;BME280_humidity;BME280_pressure;Samples;Min_cycle;Max_cycle;Signal;HPM_P1;HPM_P2
2022/11/03 00:06:05;;;;;;;22.90;10.20;;;;;;;7.62;77.93;99324.34;420574;1292;98099;-41
2022/11/03 00:16:10;;;;;;;17.50;9.70;;;;;;;7.47;78.07;99326.26;420742;1294;111618;-42
2022/11/03 00:26:15;;;;;;;26.80;12.40;;;;;;;7.35;78.40;99320.35;420781;1298;108131;-41
2022/11/03 00:36:21;;;;;;;27.80;10.80;;;;;;;7.21;78.27;99321.38;420713;1298;98915;-41
2022/11/03 00:46:26;;;;;;;19.30;10.90;;;;;;;7.07;78.40;99323.38;420805;1292;108297;-42
2022/11/03 00:56:31;;;;;;;19.70;9.00;;;;;;;6.97;78.53;99331.42;420720;1298;99224;-42
2022/11/03 01:06:52;;;;;;;17.70;9.10;;;;;;;6.94;78.64;99340.42;420721;1298;111476;-41
2022/11/03 01:16:56;;;;;;;17.90;8.40;;;;;;;6.90;79.10;99345.77;420816;1291;107208;-42
2022/11/03 01:27:00;;;;;;;19.80;9.40;;;;;;;6.97;79.28;99336.40;420699;1295;99255;-42
2022/11/03 01:37:04;;;;;;;21.40;8.00;;;;;;;6.99;79.30;99340.61;420809;1291;108532;-42
2022/11/03 01:47:10;;;;;;;16.40;8.60;;;;;;;7.00;79.24;99341.04;420794;1298;99227;-41
2022/11/03 01:57:16;;;;;;;22.30;11.70;;;;;;;6.80;79.25;99333.90;420651;1291;298652;-41
2022/11/03 02:07:19;;;;;;;22.40;11.90;;;;;;;6.54;79.42;99328.98;422009;1261;107227;-40
2022/11/03 02:17:25;;;;;;;20.40;11.10;;;;;;;6.34;79.23;99328.81;421164;1295;98025;-40
2022/11/03 02:27:29;;;;;;;18.30;9.10;;;;;;;6.22;79.59;99325.05;420972;1299;108209;-41
2022/11/03 02:37:35;;;;;;;20.10;10.40;;;;;;;6.18;79.70;99311.35;420894;1296;99045;-41
2022/11/03 02:47:41;;;;;;;16.70;9.00;;;;;;;6.12;79.83;99318.86;420855;1299;110388;-42
2022/11/03 03:07:57;;;;;;;22.70;10.10;;;;;;;5.77;79.81;99315.01;420758;1299;99217;-43
2022/11/03 03:17:59;;;;;;;15.70;9.50;;;;;;;5.65;79.77;99318.06;420815;1299;107944;-42
2022/11/03 03:28:03;;;;;;;22.80;11.60;;;;;;;5.39;79.76;99327.38;421085;1302;99294;-43
2022/11/03 03:38:06;;;;;;;21.80;10.60;;;;;;;5.04;79.80;99326.25;421087;1297;110600;-41
2022/11/03 03:48:12;;;;;;;22.20;12.00;;;;;;;4.83;79.99;99326.20;421107;1295;107663;-41
2022/11/03 03:58:17;;;;;;;27.60;15.10;;;;;;;4.70;80.22;99324.20;420864;1299;99249;-41
2022/11/03 04:08:21;;;;;;;20.30;14.00;;;;;;;4.59;80.24;99313.70;420891;1296;108522;-41
2022/11/03 04:28:46;;;;;;;28.00;16.50;;;;;;;4.33;80.54;99303.83;420899;1295;111104;-41
2022/11/03 04:38:51;;;;;;;24.90;16.20;;;;;;;4.28;80.95;99306.96;420819;1302;107709;-41
2022/11/03 04:48:58;;;;;;;27.60;18.00;;;;;;;4.33;81.17;99299.48;421304;1298;99285;-40
2022/11/03 04:59:01;;;;;;;29.70;19.20;;;;;;;4.28;81.18;99300.65;421078;1288;108425;-40
2022/11/03 05:09:06;;;;;;;26.30;18.60;;;;;;;4.23;81.23;99303.39;420955;1295;98828;-40
2022/11/03 05:19:11;;;;;;;39.90;25.60;;;;;;;4.16;81.22;99299.92;420917;1291;110287;-41
2022/11/03 05:29:18;;;;;;;47.40;29.70;;;;;;;4.07;81.37;99296.41;420832;1298;108933;-41
2022/11/03 05:39:25;;;;;;;37.80;25.60;;;;;;;4.03;81.49;99301.31;420804;1299;99299;-41
2022/11/03 05:49:30;;;;;;;31.20;19.40;;;;;;;4.01;81.54;99294.98;420923;1290;107573;-41
2022/11/03 05:59:34;;;;;;;45.70;26.90;;;;;;;3.99;81.53;99292.61;420841;1291;99045;-40
2022/11/03 06:09:37;;;;;;;45.90;28.60;;;;;;;3.98;81.53;99293.92;421096;1291;112405;-40
2022/11/03 06:19:46;;;;;;;35.00;23.50;;;;;;;3.96;81.64;99301.13;421108;1289;106865;-41
2022/11/03 06:29:52;;;;;;;38.30;27.60;;;;;;;3.89;81.87;99299.48;421106;1291;98059;-39
2022/11/03 06:40:00;;;;;;;40.80;24.70;;;;;;;4.01;82.24;99295.03;421105;1289;107345;-39
2022/11/03 06:50:03;;;;;;;38.40;24.20;;;;;;;4.36;82.58;99290.34;421068;1289;99271;-39
2022/11/03 07:10:33;;;;;;;34.70;21.10;;;;;;;6.61;82.76;99284.90;420828;1288;109339;-40
2022/11/03 07:20:39;;;;;;;45.00;25.90;;;;;;;7.71;82.43;99283.30;421062;1287;99227;-41
2022/11/03 07:30:43;;;;;;;47.10;28.80;;;;;;;8.70;81.99;99273.58;420858;1289;108128;-40
2022/11/03 07:40:47;;;;;;;42.70;26.00;;;;;;;9.73;81.61;99268.30;421083;1298;99241;-41
2022/11/03 07:50:52;;;;;;;44.40;21.00;;;;;;;10.27;80.40;99264.39;420923;1289;111074;-41
2022/11/03 08:11:00;;;;;;;38.30;23.70;;;;;;;10.59;79.20;99260.02;420938;1298;99257;-41
2022/11/03 08:21:03;;;;;;;36.40;22.80;;;;;;;10.73;78.78;99259.55;421139;1288;110505;-41
2022/11/03 08:31:06;;;;;;;40.90;25.20;;;;;;;10.69;78.11;99249.33;421456;1295;98834;-39
2022/11/03 08:41:15;;;;;;;;;;;;;;;10.72;77.56;99238.56;421361;1294;112071;-40
2022/11/03 08:51:18;;;;;;;37.90;21.70;;;;;;;10.70;77.30;99226.08;421714;1295;108070;-41
2022/11/03 09:01:22;;;;;;;33.50;19.20;;;;;;;11.21;77.13;99207.95;421264;1297;99218;-42
2022/11/03 09:11:26;;;;;;;31.70;19.50;;;;;;;11.30;76.18;99208.38;421276;1299;108460;-41
2022/11/03 09:21:29;;;;;;;31.60;18.50;;;;;;;11.39;75.72;99199.29;421080;1289;99326;-42
2022/11/03 09:31:34;;;;;;;34.10;21.50;;;;;;;11.61;75.53;99188.16;421105;1289;110659;-38
2022/11/03 09:41:38;;;;;;;32.00;19.40;;;;;;;11.79;74.34;99169.73;421347;1289;107722;-39
2022/11/03 09:52:02;;;;;;;32.90;17.60;;;;;;;12.03;74.37;99146.27;420869;1298;99895;-41
2022/11/03 10:02:05;;;;;;;32.70;17.40;;;;;;;12.33;74.33;99128.30;421344;1289;107583;-41
2022/11/03 10:12:11;;;;;;;28.40;14.20;;;;;;;12.55;74.00;99117.25;421524;1283;98154;-41
2022/11/03 10:22:14;;;;;;;24.70;11.50;;;;;;;12.63;72.15;99111.27;421063;1283;110320;-41
2022/11/03 10:32:27;;;;;;;27.90;11.60;;;;;;;12.88;71.45;99104.36;421257;1289;108189;-41
2022/11/03 10:42:31;;;;;;;21.60;8.70;;;;;;;12.98;69.65;99094.75;421125;1298;99371;-41
2022/11/03 10:52:39;;;;;;;28.40;10.40;;;;;;;13.21;69.90;99079.23;421366;1298;108494;-40
2022/11/03 11:02:42;;;;;;;19.20;9.60;;;;;;;13.32;68.60;99057.80;421134;1288;99120;-39
2022/11/03 11:13:04;;;;;;;19.20;8.30;;;;;;;13.13;67.77;99040.58;421167;1288;112224;-41
2022/11/03 11:54:54;;;;;;;10.60;5.80;;;;;;;13.58;65.79;98953.92;421161;1289;98936;-41
2022/11/03 12:15:02;;;;;;;11.20;4.70;;;;;;;13.64;64.57;98923.08;420966;1289;106678;-41
2022/11/03 12:25:07;;;;;;;9.00;3.80;;;;;;;13.59;63.99;98913.97;420976;1289;97955;-41
2022/11/03 12:35:13;;;;;;;11.20;3.00;;;;;;;13.43;63.51;98898.52;420917;1298;107662;-40
2022/11/03 12:45:16;;;;;;;7.50;3.40;;;;;;;13.36;63.09;98883.27;420885;1289;99243;-40
2022/11/03 12:55:20;;;;;;;6.20;3.20;;;;;;;13.37;62.16;98865.98;420840;1294;112216;-40
2022/11/03 13:05:24;;;;;;;11.60;4.10;;;;;;;13.48;61.06;98850.91;420967;1288;108751;-41
2022/11/03 13:15:28;;;;;;;8.60;3.60;;;;;;;13.62;61.49;98841.95;421232;1291;99221;-40
2022/11/03 13:25:32;;;;;;;6.20;2.90;;;;;;;13.68;60.66;98838.42;421114;1299;108629;-41
2022/11/03 13:35:36;;;;;;;6.90;2.70;;;;;;;13.63;60.27;98821.84;421274;1291;98765;-41
2022/11/03 13:45:40;;;;;;;8.20;2.90;;;;;;;13.48;59.18;98810.26;421134;1298;112891;-40
2022/11/03 13:55:44;;;;;;;3.60;2.70;;;;;;;13.10;58.52;98798.71;421231;1289;238059;-40
2022/11/03 14:05:48;;;;;;;9.50;2.80;;;;;;;13.01;58.15;98781.91;421258;1298;98464;-41
2022/11/03 14:15:52;;;;;;;5.90;3.10;;;;;;;12.95;57.51;98772.65;421057;1289;108531;-41
2022/11/03 14:25:55;;;;;;;11.40;4.40;;;;;;;12.70;58.27;98763.66;421043;1298;99248;-41
2022/11/03 14:36:19;;;;;;;10.00;4.30;;;;;;;12.34;59.22;98757.95;421016;1283;113128;-41
2022/11/03 14:46:22;;;;;;;13.50;4.70;;;;;;;12.06;60.13;98757.89;421048;1284;107514;-41
2022/11/03 14:56:26;;;;;;;11.10;5.10;;;;;;;11.72;60.64;98749.35;421300;1289;99269;-41
2022/11/03 15:06:30;;;;;;;17.00;5.90;;;;;;;11.36;61.23;98742.64;421195;1295;108433;-41
2022/11/03 15:26:38;;;;;;;25.10;9.40;;;;;;;10.78;62.42;98723.22;421419;1291;111223;-41
2022/11/03 15:36:41;;;;;;;33.30;13.80;;;;;;;10.58;63.16;98712.37;421293;1287;108274;-42
2022/11/03 15:46:45;;;;;;;33.90;12.90;;;;;;;10.45;63.86;98699.37;421092;1298;99215;-40
2022/11/03 16:06:52;;;;;;;23.60;14.10;;;;;;;10.16;64.72;98676.80;420820;1291;102083;-40
2022/11/03 16:17:11;;;;;;;31.00;15.20;;;;;;;9.99;65.05;98663.88;420861;1295;111773;-41
2022/11/03 16:27:15;;;;;;;24.70;13.20;;;;;;;9.84;65.48;98656.55;421107;1298;107980;-41
2022/11/03 16:37:18;;;;;;;29.30;12.90;;;;;;;9.67;65.65;98651.05;421020;1298;98846;-41
2022/11/03 16:47:24;;;;;;;25.30;15.90;;;;;;;9.63;66.28;98640.66;421206;1289;108221;-41
2022/11/03 16:57:27;;;;;;;39.10;19.00;;;;;;;9.68;66.76;98628.60;421059;1291;99244;-41
2022/11/03 17:07:31;;;;;;;42.00;19.90;;;;;;;9.70;67.12;98614.95;421149;1288;111580;-41
2022/11/03 17:17:36;;;;;;;44.70;22.10;;;;;;;9.71;67.25;98596.34;421306;1298;107662;-41
2022/11/03 17:27:40;;;;;;;124.70;64.60;;;;;;;9.80;67.55;98589.65;421092;1298;99240;-41
2022/11/03 17:37:44;;;;;;;51.80;23.90;;;;;;;9.94;67.64;98584.33;420784;1295;108323;-41
2022/11/03 18:07:57;;;;;;;34.10;18.60;;;;;;;10.00;67.86;98551.16;421418;1289;107028;-41
2022/11/03 18:18:02;;;;;;;23.60;12.50;;;;;;;10.14;67.70;98532.57;420919;1298;99224;-42
2022/11/03 18:28:06;;;;;;;23.10;11.50;;;;;;;10.34;67.44;98515.81;421090;1287;107789;-41
2022/11/03 18:38:10;;;;;;;24.90;11.60;;;;;;;10.42;67.25;98490.27;421177;1281;98953;-41
2022/11/03 18:58:24;;;;;;;23.20;11.00;;;;;;;10.43;66.78;98453.82;421023;1298;108451;-41
2022/11/03 19:08:30;;;;;;;24.40;13.30;;;;;;;10.49;66.48;98433.69;420985;1289;99950;-41
2022/11/03 19:18:35;;;;;;;18.40;11.00;;;;;;;10.54;66.44;98418.48;421013;1288;108299;-40
2022/11/03 19:28:39;;;;;;;22.90;11.60;;;;;;;10.64;66.42;98395.48;420816;1289;99253;-40
2022/11/03 19:38:44;;;;;;;24.50;12.10;;;;;;;10.75;66.45;98380.67;421121;1298;111844;-40
2022/11/03 19:48:47;;;;;;;29.70;14.30;;;;;;;10.76;66.56;98361.16;421021;1295;107172;-41
2022/11/03 19:58:51;;;;;;;28.30;13.90;;;;;;;10.75;66.66;98352.06;421111;1295;98834;-42
2022/11/03 20:08:55;;;;;;;31.30;13.60;;;;;;;10.76;66.65;98337.00;421162;1299;107723;-41
2022/11/03 20:18:59;;;;;;;23.50;13.10;;;;;;;10.76;66.74;98330.92;421305;1289;99218;-42
2022/11/03 20:29:03;;;;;;;26.40;13.60;;;;;;;10.79;66.89;98320.07;420974;1298;112067;-42
2022/11/03 20:39:09;;;;;;;24.10;11.80;;;;;;;10.87;66.95;98308.50;421200;1299;107040;-40
2022/11/03 20:49:13;;;;;;;26.20;15.00;;;;;;;10.86;67.04;98296.91;421345;1289;101525;-40
2022/11/03 20:59:20;;;;;;;23.20;12.40;;;;;;;10.82;67.20;98285.58;421197;1302;108557;-40
2022/11/03 21:09:23;;;;;;;30.40;14.70;;;;;;;10.75;67.25;98276.63;421067;1287;98054;-40
2022/11/03 21:29:51;;;;;;;27.70;14.30;;;;;;;10.63;67.44;98264.69;421068;1286;107232;-39
2022/11/03 21:40:03;;;;;;;28.30;15.80;;;;;;;10.65;67.53;98251.93;421241;1299;99930;-40
2022/11/03 21:50:08;;;;;;;35.30;19.00;;;;;;;10.60;67.66;98239.19;421101;1299;109707;-40
2022/11/03 22:00:13;;;;;;;34.90;18.80;;;;;;;10.47;67.81;98232.16;421067;1289;99243;-40
2022/11/03 22:10:17;;;;;;;33.20;16.10;;;;;;;10.30;68.01;98219.54;421144;1289;110994;-40
2022/11/03 22:51:27;;;;;;;38.10;18.10;;;;;;;9.83;68.85;98163.36;420965;1289;99985;-41
2022/11/03 23:01:31;;;;;;;31.90;17.40;;;;;;;9.73;69.11;98136.61;421205;1289;112922;-40
2022/11/03 23:11:34;;;;;;;43.30;19.40;;;;;;;9.58;69.22;98124.02;421098;1300;107479;-42
2022/11/03 23:21:38;;;;;;;32.10;17.50;;;;;;;9.44;69.46;98114.31;420803;1299;98029;-41
2022/11/03 23:31:44;;;;;;;30.80;16.50;;;;;;;9.36;69.76;98103.48;420796;1295;108594;-41
2022/11/03 23:41:49;;;;;;;26.70;14.70;;;;;;;9.34;69.80;98083.83;420783;1294;99237;-41
2022/11/03 23:51:52;;;;;;;25.40;13.70;;;;;;;9.36;70.12;98055.89;420964;1288;111517;-40
